메인 페이지
METAR-TAF:

METAR-TAF

공항 :

시즈오카 공항

시즈오카, 일본

위도: 34-47-46N, 경도: 138-11-22E, 고도: 132m

현재 날씨관측

예보는 29분 전, 09:00시(UTC)에 발표되었습니다.
서남서5kt남남서풍과 풍을 오가는
온도 10°C
습도 57%
기압 1019 hPa
시정 10km 이상
고도 2500ft 상공 구름 조금
고도 11000ft 상공 구름 보통
고도 13000ft 상공 구름 많음

METAR: RJNS 160900Z 24005KT 210V270 9999 FEW025 SCT110 BKN130 10/02 Q1019

시각: 18:29 (09:29 UTC)

예보

예보는 4 시간 24분 전, 05:05시(UTC)에 발표되었습니다.
예보 대상 시간: 16일 06시부터 17일 12시까지 (UTC)
서북서8kt
시정 10km 이상
고도 2000ft 상공 구름 조금
고도 5000ft 상공 구름 보통
일시적
16일 16시부터 16일 18시까지 (UTC)
시정: 4000m
고도 500ft 상공 구름 조금
고도 800ft 상공 구름 많음
약한소나기, 박무
일시적
16일 18시부터 17일 00시까지 (UTC)
시정: 3000m
고도 500ft 상공 구름 조금
고도 800ft 상공 구름 많음
소나기, 박무
전환 중
17일 03시부터 17일 06시까지 (UTC)
22kt, 순간 최대 풍속 32kt

TAF: RJNS 160505Z 1606/1712 29008KT 9999 FEW020 SCT050 TEMPO 1616/1618 4000 -SHRA BR FEW005 BKN008 TEMPO 1618/1700 3000 SHRA BR FEW005 BKN008 BECMG 1703/1706 26022G32KT

4,000개 이상의 공항 관측 자료 및 예보 (METAR 및 TAF 보고).

지도상에서 검색 가능한 기상관측소가 노란 점과 빨간 점으로 표시되어 있습니다.

기상관측소 명을 보려면 표시 위로 마우스를 이동하세요.

날씨 관측과 예보를 보려면 클릭하세요.

지도 변경 : 확대하려면 엑스 표시가 있는 녹색 버튼, 축소하려면 빼기 표시가 있는 녹색 버튼, 다음 페이지의 지도를 보려면 녹색 화살표를 클릭하세요.


METAR-TAF: